createdAt,value
2018-06-22T00:02:14.696Z,65.10
2018-06-22T00:04:43.048Z,64.40
2018-06-22T00:07:11.400Z,65.33
2018-06-22T00:09:39.733Z,64.41
2018-06-22T00:12:08.186Z,65.31
2018-06-22T00:14:36.568Z,64.18
2018-06-22T00:17:04.939Z,64.56
2018-06-22T00:19:33.292Z,63.82
2018-06-22T00:22:01.616Z,64.80
2018-06-22T00:24:29.969Z,65.66
2018-06-22T00:26:58.289Z,66.34
2018-06-22T00:29:26.633Z,66.76
2018-06-22T00:31:55.436Z,66.05
2018-06-22T00:34:23.771Z,64.24
2018-06-22T00:36:52.152Z,63.93
2018-06-22T00:39:20.475Z,65.13
2018-06-22T00:41:49.058Z,65.55
2018-06-22T00:44:17.386Z,65.19
2018-06-22T00:46:45.715Z,66.21
2018-06-22T00:49:14.074Z,67.23
2018-06-22T00:51:42.387Z,65.30
2018-06-22T00:54:16.059Z,66.72
2018-06-22T00:56:44.541Z,65.42
2018-06-22T00:59:13.239Z,66.70
2018-06-22T01:01:41.602Z,65.63
2018-06-22T01:04:10.935Z,66.20
2018-06-22T01:06:39.275Z,66.35
2018-06-22T01:09:09.437Z,66.37
2018-06-22T01:11:37.817Z,67.51
2018-06-22T01:14:06.397Z,65.55
2018-06-22T01:16:34.769Z,66.02
2018-06-22T01:19:03.126Z,65.61
2018-06-22T01:21:31.464Z,66.17
2018-06-22T01:23:59.850Z,66.77
2018-06-22T01:26:28.225Z,66.97
2018-06-22T01:30:00.575Z,67.48
2018-06-22T01:32:28.916Z,67.84
2018-06-22T01:34:57.232Z,68.67
2018-06-22T01:37:26.191Z,66.98
2018-06-22T01:39:54.698Z,67.50
2018-06-22T01:42:23.049Z,67.89
2018-06-22T01:44:51.357Z,67.88
2018-06-22T01:47:19.700Z,66.75
2018-06-22T01:49:48.016Z,68.29
2018-06-22T01:52:16.375Z,68.37
2018-06-22T01:54:44.736Z,68.23
2018-06-22T01:57:13.048Z,68.70
2018-06-22T01:59:41.394Z,68.29
2018-06-22T02:02:09.776Z,68.61
2018-06-22T02:04:38.115Z,69.01
2018-06-22T02:07:06.486Z,67.75
2018-06-22T02:09:34.839Z,69.34
2018-06-22T02:12:03.193Z,68.64
2018-06-22T02:14:31.532Z,68.03
2018-06-22T02:16:59.874Z,69.63
2018-06-22T02:19:28.221Z,68.51
2018-06-22T02:21:56.548Z,67.98
2018-06-22T02:24:24.913Z,69.52
2018-06-22T02:26:53.256Z,70.05
2018-06-22T02:29:21.601Z,69.19
2018-06-22T02:31:49.944Z,67.92
2018-06-22T02:34:18.299Z,68.18
2018-06-22T02:36:46.658Z,69.08
2018-06-22T02:39:14.983Z,69.40
2018-06-22T02:41:43.317Z,69.27
2018-06-22T02:44:11.668Z,67.79
2018-06-22T02:46:39.998Z,69.79
2018-06-22T02:49:08.361Z,68.53
2018-06-22T02:51:36.795Z,68.30
2018-06-22T02:54:05.183Z,69.35
2018-06-22T02:56:33.532Z,68.01
2018-06-22T02:59:01.860Z,69.54
2018-06-22T03:01:30.225Z,68.24
2018-06-22T03:03:58.569Z,68.77
2018-06-22T03:06:26.891Z,68.61
2018-06-22T03:08:55.220Z,68.51
2018-06-22T03:11:23.568Z,67.72
2018-06-22T03:13:51.894Z,67.52
2018-06-22T03:16:20.229Z,68.26
2018-06-22T03:18:48.569Z,67.04
2018-06-22T03:21:16.915Z,68.31
2018-06-22T03:23:45.241Z,68.15
2018-06-22T03:26:13.690Z,68.13
2018-06-22T03:28:42.032Z,67.37
2018-06-22T03:31:10.347Z,68.38
2018-06-22T03:33:39.140Z,67.31
2018-06-22T03:36:07.567Z,67.99
2018-06-22T03:38:35.902Z,67.83
2018-06-22T03:41:04.252Z,68.08
2018-06-22T03:43:32.601Z,67.51
2018-06-22T03:46:00.929Z,66.90
2018-06-22T03:48:29.258Z,67.43
2018-06-22T03:50:57.586Z,68.48
2018-06-22T03:53:25.940Z,68.07
2018-06-22T03:55:54.292Z,66.66
2018-06-22T03:58:22.645Z,68.11
2018-06-22T04:00:50.977Z,68.33
2018-06-22T04:03:19.295Z,66.95
2018-06-22T04:05:47.644Z,67.52
2018-06-22T04:08:16.022Z,67.58
2018-06-22T04:10:44.361Z,67.42
2018-06-22T04:13:12.711Z,67.50
2018-06-22T04:15:41.073Z,67.74
2018-06-22T04:18:09.437Z,67.49
2018-06-22T04:20:37.808Z,67.31
2018-06-22T04:23:06.128Z,67.30
2018-06-22T04:25:34.459Z,67.57
2018-06-22T04:28:02.786Z,66.95
2018-06-22T04:30:31.115Z,67.35
2018-06-22T04:32:59.424Z,66.83
2018-06-22T04:35:27.770Z,67.42
2018-06-22T04:37:56.104Z,66.58
2018-06-22T04:40:24.446Z,67.14
2018-06-22T04:42:53.603Z,67.17
2018-06-22T04:45:21.930Z,67.46
2018-06-22T04:47:50.255Z,67.24
2018-06-22T04:50:18.604Z,67.69
2018-06-22T04:52:47.479Z,67.20
2018-06-22T04:55:17.032Z,67.09
2018-06-22T04:57:45.819Z,66.66
2018-06-22T05:00:14.194Z,66.46
2018-06-22T05:02:42.500Z,66.50
2018-06-22T05:05:10.830Z,67.11
2018-06-22T05:07:39.202Z,66.95
2018-06-22T05:10:07.568Z,66.55
2018-06-22T05:12:35.923Z,66.54
2018-06-22T05:15:04.266Z,65.77
2018-06-22T05:17:32.863Z,66.76
2018-06-22T05:20:01.184Z,66.38
2018-06-22T05:22:29.516Z,66.75
2018-06-22T05:24:57.840Z,66.37
2018-06-22T05:27:26.190Z,65.99
2018-06-22T05:29:54.593Z,66.47
2018-06-22T05:32:22.919Z,65.91
2018-06-22T05:34:51.274Z,65.67
2018-06-22T05:37:19.807Z,65.88
2018-06-22T05:39:48.159Z,65.53
2018-06-22T05:42:16.490Z,65.16
2018-06-22T05:44:44.814Z,65.65
2018-06-22T05:47:13.147Z,65.43
2018-06-22T05:49:41.523Z,65.04
2018-06-22T05:52:09.879Z,64.40
2018-06-22T05:54:38.191Z,65.22
2018-06-22T05:57:06.556Z,64.84
2018-06-22T05:59:34.912Z,64.57
2018-06-22T06:02:03.250Z,64.16
2018-06-22T06:04:31.598Z,64.46
2018-06-22T06:07:00.571Z,64.31
2018-06-22T06:09:29.584Z,63.93
2018-06-22T06:11:58.035Z,63.81
2018-06-22T06:14:26.364Z,64.25
2018-06-22T06:16:54.775Z,64.08
2018-06-22T06:19:23.107Z,63.98
2018-06-22T06:21:51.437Z,63.99
2018-06-22T06:24:19.759Z,64.38
2018-06-22T06:26:48.086Z,64.23
2018-06-22T06:29:16.414Z,63.91
2018-06-22T06:31:44.763Z,63.75
2018-06-22T06:34:13.110Z,63.76
2018-06-22T06:36:41.440Z,63.70
2018-06-22T06:39:09.778Z,63.55
2018-06-22T06:41:38.124Z,63.42
2018-06-22T06:44:06.482Z,63.53
2018-06-22T06:46:34.871Z,63.74
2018-06-22T06:49:03.233Z,63.85
2018-06-22T06:51:31.563Z,63.93
2018-06-22T06:54:00.076Z,64.07
2018-06-22T06:56:28.580Z,63.53
2018-06-22T06:58:56.927Z,63.47
2018-06-22T07:01:25.239Z,63.03
2018-06-22T07:03:53.602Z,62.50
2018-06-22T07:06:21.987Z,62.08
2018-06-22T07:08:50.433Z,62.71
2018-06-22T07:11:18.788Z,62.90
2018-06-22T07:13:47.128Z,62.71
2018-06-22T07:16:15.466Z,62.30
2018-06-22T07:18:43.815Z,62.59
2018-06-22T07:21:12.151Z,63.10
2018-06-22T07:23:40.473Z,62.98
2018-06-22T07:26:08.814Z,62.64
2018-06-22T07:28:37.174Z,62.73
2018-06-22T07:31:05.552Z,63.13
2018-06-22T07:33:33.896Z,62.03
2018-06-22T07:36:02.232Z,61.98
2018-06-22T07:38:30.603Z,61.24
2018-06-22T07:40:58.980Z,61.23
2018-06-22T07:43:27.341Z,61.53
2018-06-22T07:45:55.679Z,62.10
2018-06-22T07:48:24.028Z,60.77
2018-06-22T07:50:52.556Z,61.06
2018-06-22T07:53:20.900Z,61.89
2018-06-22T07:55:49.328Z,61.74
2018-06-22T07:58:17.644Z,61.94
2018-06-22T08:00:46.097Z,61.83
2018-06-22T08:03:15.372Z,61.78
2018-06-22T08:05:44.845Z,61.64
2018-06-22T08:08:13.255Z,61.38
2018-06-22T08:10:41.584Z,61.20
2018-06-22T08:13:09.939Z,61.38
2018-06-22T08:15:38.242Z,60.41
2018-06-22T08:18:06.630Z,61.23
2018-06-22T08:20:34.973Z,60.69
2018-06-22T08:23:03.279Z,60.43
2018-06-22T08:25:31.600Z,60.55
2018-06-22T08:27:59.932Z,60.21
2018-06-22T08:30:28.310Z,60.62
2018-06-22T08:32:57.588Z,60.12
2018-06-22T08:35:26.097Z,59.54
2018-06-22T08:37:54.422Z,60.12
2018-06-22T08:40:22.747Z,60.44
2018-06-22T08:42:51.059Z,60.26
2018-06-22T08:45:19.408Z,59.68
2018-06-22T08:47:47.720Z,60.15
2018-06-22T08:50:16.059Z,59.72
2018-06-22T08:52:44.412Z,60.30
2018-06-22T08:55:12.713Z,60.19
2018-06-22T08:57:41.044Z,60.37
2018-06-22T09:00:09.372Z,60.47
2018-06-22T09:02:37.728Z,60.91
2018-06-22T09:05:06.076Z,60.37
2018-06-22T09:07:34.453Z,60.42
2018-06-22T09:10:02.787Z,59.63
2018-06-22T09:12:31.182Z,55.38
2018-06-22T09:14:59.516Z,55.12
2018-06-22T09:17:28.244Z,55.10
2018-06-22T09:19:56.585Z,50.45
2018-06-22T09:22:24.919Z,52.48
2018-06-22T09:24:53.268Z,48.75
2018-06-22T09:27:21.631Z,51.92
2018-06-22T09:29:49.998Z,52.01
2018-06-22T09:32:18.427Z,54.68
2018-06-22T09:34:46.962Z,53.56
2018-06-22T09:37:15.960Z,55.97
2018-06-22T09:39:44.351Z,56.58
2018-06-22T09:42:12.714Z,57.34
2018-06-22T09:44:41.331Z,57.67
2018-06-22T09:47:10.010Z,58.73
2018-06-22T09:49:38.364Z,58.65
2018-06-22T09:52:07.330Z,59.46
2018-06-22T09:54:35.705Z,60.50
2018-06-22T09:57:04.082Z,61.01
2018-06-22T09:59:32.425Z,63.28
2018-06-22T10:02:00.873Z,61.37
2018-06-22T10:04:29.631Z,62.97
2018-06-22T10:06:58.037Z,62.18
2018-06-22T10:09:26.383Z,62.62
2018-06-22T10:11:54.791Z,62.46
2018-06-22T10:14:23.234Z,59.63
2018-06-22T10:16:52.531Z,58.92
2018-06-22T10:19:21.131Z,55.14
2018-06-22T10:21:49.514Z,54.20
2018-06-22T10:24:17.922Z,55.48
2018-06-22T10:26:46.271Z,55.31
2018-06-22T10:29:14.607Z,55.38
2018-06-22T10:31:42.959Z,54.93
2018-06-22T10:34:11.309Z,56.05
2018-06-22T10:36:39.718Z,56.27
2018-06-22T10:39:11.050Z,55.23
2018-06-22T10:41:39.473Z,55.45
2018-06-22T10:44:08.358Z,54.16
2018-06-22T10:46:36.732Z,54.09
2018-06-22T10:49:05.714Z,54.63
2018-06-22T10:51:34.028Z,53.58
2018-06-22T10:54:02.434Z,52.96
2018-06-22T10:56:30.818Z,53.96
2018-06-22T10:58:59.152Z,54.14
2018-06-22T11:01:27.621Z,52.47
2018-06-22T11:03:55.986Z,52.28
2018-06-22T11:06:24.335Z,52.48
2018-06-22T11:08:52.663Z,51.39
2018-06-22T11:11:20.988Z,50.57
2018-06-22T11:13:49.330Z,51.76
2018-06-22T11:16:17.782Z,57.31
2018-06-22T11:18:46.112Z,61.33
2018-06-22T11:21:14.500Z,59.44
2018-06-22T11:23:42.844Z,57.92
2018-06-22T11:26:11.185Z,61.81
2018-06-22T11:28:39.499Z,59.67
2018-06-22T11:31:07.852Z,62.00
2018-06-22T11:33:36.201Z,60.89
2018-06-22T11:36:04.553Z,61.37
2018-06-22T11:38:33.043Z,62.89
2018-06-22T11:41:01.363Z,67.71
2018-06-22T11:43:29.716Z,66.99
2018-06-22T11:45:58.053Z,67.18
2018-06-22T11:48:26.427Z,71.91
2018-06-22T11:50:54.746Z,71.68
2018-06-22T11:53:23.054Z,68.97
2018-06-22T11:55:51.390Z,70.41
2018-06-22T11:58:19.740Z,69.76
2018-06-22T12:00:48.072Z,68.14
2018-06-22T12:03:16.394Z,69.70
2018-06-22T12:05:44.751Z,71.01
2018-06-22T12:08:13.088Z,69.84
2018-06-22T12:10:41.441Z,68.61
2018-06-22T12:13:09.781Z,70.28
2018-06-22T12:15:38.705Z,70.66
2018-06-22T12:18:07.127Z,70.38
2018-06-22T12:20:35.462Z,67.87
2018-06-22T12:23:03.814Z,67.61
2018-06-22T12:25:32.159Z,67.37
2018-06-22T12:28:00.540Z,68.56
2018-06-22T12:30:28.867Z,68.24
2018-06-22T12:32:57.235Z,67.81
2018-06-22T12:35:25.571Z,66.32
2018-06-22T12:37:53.995Z,67.58
2018-06-22T12:40:22.331Z,65.60
2018-06-22T12:42:50.707Z,66.52
2018-06-22T12:45:19.072Z,66.96
2018-06-22T12:47:47.422Z,68.92
2018-06-22T12:50:15.908Z,67.13
2018-06-22T12:52:44.260Z,67.59
2018-06-22T12:55:12.598Z,68.12
2018-06-22T12:57:41.453Z,66.20
2018-06-22T13:00:09.795Z,65.24
2018-06-22T13:02:38.157Z,65.19
2018-06-22T13:05:06.524Z,63.76
2018-06-22T13:07:34.899Z,63.27
2018-06-22T13:10:03.704Z,60.29
2018-06-22T13:12:32.078Z,60.42
2018-06-22T13:15:01.140Z,59.46
2018-06-22T13:17:30.032Z,58.22
2018-06-22T13:19:58.372Z,58.04
2018-06-22T13:22:27.076Z,57.12
2018-06-22T13:24:55.509Z,57.29
2018-06-22T13:27:23.883Z,57.25
2018-06-22T13:29:52.502Z,57.19
2018-06-22T13:32:21.063Z,55.64
2018-06-22T13:34:49.951Z,55.97
2018-06-22T13:37:18.293Z,54.83
2018-06-22T13:39:47.420Z,56.02
2018-06-22T13:42:16.000Z,55.65
2018-06-22T13:44:44.385Z,56.06
2018-06-22T13:47:13.107Z,56.80
2018-06-22T13:49:41.452Z,53.90
2018-06-22T13:52:10.029Z,53.50
2018-06-22T13:54:39.020Z,53.90
2018-06-22T13:57:08.561Z,53.75
2018-06-22T13:59:37.478Z,54.66
2018-06-22T14:02:06.318Z,53.40
2018-06-22T14:04:40.670Z,53.53
2018-06-22T14:07:09.047Z,53.19
2018-06-22T14:09:37.530Z,53.82
2018-06-22T14:12:06.774Z,53.44
2018-06-22T14:14:36.201Z,53.56
2018-06-22T14:17:05.031Z,53.79
2018-06-22T14:19:33.498Z,52.91
2018-06-22T14:22:01.877Z,52.26
2018-06-22T14:24:30.227Z,52.93
2018-06-22T14:26:59.157Z,53.98
2018-06-22T14:29:27.894Z,53.27
2018-06-22T14:31:56.650Z,53.61
2018-06-22T14:34:25.718Z,54.20
2018-06-22T14:36:54.067Z,53.53
2018-06-22T14:39:22.417Z,52.57
2018-06-22T14:41:50.792Z,52.17
2018-06-22T14:44:19.984Z,52.94
2018-06-22T14:46:48.433Z,53.48
2018-06-22T14:49:16.838Z,53.67
2018-06-22T14:51:45.198Z,52.74
2018-06-22T14:54:18.878Z,52.59
2018-06-22T14:56:52.639Z,53.52
2018-06-22T14:59:26.237Z,53.79
2018-06-22T15:01:59.872Z,54.00
2018-06-22T15:04:33.719Z,52.73
2018-06-22T15:07:07.363Z,53.35
2018-06-22T15:09:35.723Z,53.54
2018-06-22T15:12:04.112Z,52.23
2018-06-22T15:14:32.500Z,52.75
2018-06-22T15:17:00.930Z,51.22
2018-06-22T15:19:30.195Z,52.29
2018-06-22T15:21:59.095Z,51.84
2018-06-22T15:24:27.440Z,51.01
2018-06-22T15:26:55.787Z,51.66
2018-06-22T15:29:24.136Z,50.99
2018-06-22T15:31:52.488Z,50.71
2018-06-22T15:34:26.268Z,50.68
2018-06-22T15:37:00.515Z,49.38
2018-06-22T15:39:35.253Z,49.36
2018-06-22T15:42:09.141Z,50.27
2018-06-22T15:44:42.896Z,50.73
2018-06-22T15:48:17.987Z,50.60
2018-06-22T15:50:51.744Z,51.09
2018-06-22T15:53:25.453Z,50.97
2018-06-22T15:55:57.991Z,49.72
2018-06-22T15:58:26.361Z,48.71
2018-06-22T16:00:54.696Z,49.80
2018-06-22T16:03:28.414Z,48.79
2018-06-22T16:05:56.732Z,50.06
2018-06-22T16:08:25.124Z,49.21
2018-06-22T16:10:53.523Z,50.06
2018-06-22T16:13:22.424Z,49.69
2018-06-22T16:15:56.338Z,48.83
2018-06-22T16:18:31.193Z,49.84
2018-06-22T16:21:04.898Z,49.65
2018-06-22T16:23:39.228Z,49.01
2018-06-22T16:26:12.966Z,49.65
2018-06-22T16:28:41.990Z,49.50
2018-06-22T16:31:10.318Z,50.43
2018-06-22T16:33:42.829Z,50.46
2018-06-22T16:36:11.378Z,50.61
2018-06-22T16:38:39.728Z,50.00
2018-06-22T16:41:08.291Z,50.74
2018-06-22T16:43:36.620Z,50.22
2018-06-22T16:46:05.233Z,51.05
2018-06-22T16:48:33.529Z,51.46
2018-06-22T16:51:01.861Z,50.63
2018-06-22T16:53:30.499Z,51.33
2018-06-22T16:55:59.395Z,51.31
2018-06-22T16:58:33.055Z,51.70
2018-06-22T17:01:01.404Z,52.00
2018-06-22T17:03:29.900Z,51.99
2018-06-22T17:05:58.402Z,51.56
2018-06-22T17:08:32.155Z,51.14
2018-06-22T17:11:06.044Z,51.25
2018-06-22T17:13:39.799Z,50.89
2018-06-22T17:16:13.451Z,51.41
2018-06-22T17:18:47.156Z,51.44
2018-06-22T17:21:15.531Z,50.26
2018-06-22T17:23:43.842Z,50.96
2018-06-22T17:26:12.187Z,50.56
2018-06-22T17:28:40.518Z,50.88
2018-06-22T17:31:09.283Z,51.18
2018-06-22T17:33:38.048Z,50.84
2018-06-22T17:36:06.912Z,51.24
2018-06-22T17:38:35.246Z,51.52
2018-06-22T17:41:03.618Z,51.82
2018-06-22T17:43:31.967Z,52.01
2018-06-22T17:46:00.326Z,52.13
2018-06-22T17:48:28.734Z,52.08
2018-06-22T17:50:57.270Z,52.10
2018-06-22T17:53:25.616Z,52.45
2018-06-22T17:55:53.959Z,53.14
2018-06-22T17:58:22.433Z,52.91
2018-06-22T18:01:55.980Z,52.68
2018-06-22T18:04:29.649Z,53.73
2018-06-22T18:07:03.312Z,53.90
2018-06-22T18:09:37.046Z,53.74
2018-06-22T18:12:10.948Z,53.39
2018-06-22T18:14:39.679Z,52.98
2018-06-22T18:17:08.079Z,51.91
2018-06-22T18:19:36.400Z,51.55
2018-06-22T18:22:04.779Z,52.16
2018-06-22T18:24:33.127Z,51.65
2018-06-22T18:27:01.765Z,51.21
2018-06-22T18:29:30.091Z,51.48
2018-06-22T18:31:58.426Z,50.77
2018-06-22T18:34:26.748Z,51.48
2018-06-22T18:36:56.524Z,51.31
2018-06-22T18:39:25.013Z,51.66
2018-06-22T18:41:53.661Z,51.95
2018-06-22T18:44:22.005Z,51.89
2018-06-22T18:46:50.430Z,51.97
2018-06-22T18:49:18.760Z,52.06
2018-06-22T18:51:47.840Z,52.02
2018-06-22T18:54:21.505Z,51.56
2018-06-22T18:56:55.192Z,51.98
2018-06-22T18:59:28.732Z,51.81
2018-06-22T19:02:02.552Z,52.20
2018-06-22T19:04:30.932Z,51.83
2018-06-22T19:06:59.490Z,52.07
2018-06-22T19:09:27.839Z,51.74
2018-06-22T19:11:56.278Z,51.06
2018-06-22T19:14:24.662Z,50.88
2018-06-22T19:16:53.039Z,51.41
2018-06-22T19:19:21.388Z,51.57
2018-06-22T19:21:49.782Z,51.69
2018-06-22T19:24:18.147Z,51.76
2018-06-22T19:26:46.528Z,51.47
2018-06-22T19:29:14.918Z,52.04
2018-06-22T19:31:43.284Z,52.07
2018-06-22T19:34:11.737Z,51.44
2018-06-22T19:36:40.260Z,51.80
2018-06-22T19:39:09.887Z,52.03
2018-06-22T19:41:38.271Z,51.63
2018-06-22T19:44:11.814Z,52.35
2018-06-22T19:46:45.691Z,51.89
2018-06-22T19:49:19.391Z,52.38
2018-06-22T19:51:53.061Z,52.66
2018-06-22T19:54:21.533Z,52.75
2018-06-22T19:56:49.946Z,52.35
2018-06-22T19:59:18.394Z,53.01
2018-06-22T20:01:46.743Z,52.62
2018-06-22T20:04:15.766Z,53.36
2018-06-22T20:06:44.460Z,52.85
2018-06-22T20:09:12.838Z,53.25
2018-06-22T20:11:41.181Z,52.86
2018-06-22T20:14:09.608Z,53.05
2018-06-22T20:16:37.967Z,53.22
2018-06-22T20:19:06.319Z,53.30
2018-06-22T20:21:34.726Z,53.29
2018-06-22T20:24:03.213Z,52.97
2018-06-22T20:26:31.587Z,54.02
2018-06-22T20:29:00.066Z,54.02
2018-06-22T20:31:33.804Z,54.01
2018-06-22T20:34:07.651Z,54.48
2018-06-22T20:36:41.460Z,54.38
2018-06-22T20:39:15.459Z,54.93
2018-06-22T20:41:49.202Z,54.63
2018-06-22T20:44:23.011Z,55.51
2018-06-22T20:48:00.650Z,54.44
2018-06-22T20:50:33.323Z,54.75
2018-06-22T20:53:03.122Z,55.70
2018-06-22T20:55:32.304Z,54.98
2018-06-22T20:58:00.722Z,55.58
2018-06-22T21:00:29.219Z,55.51
2018-06-22T21:02:58.286Z,55.73
2018-06-22T21:05:26.664Z,56.39
2018-06-22T21:07:55.123Z,57.13
2018-06-22T21:10:24.127Z,57.30
2018-06-22T21:12:52.565Z,57.28
2018-06-22T21:15:21.291Z,58.14
2018-06-22T21:17:49.987Z,58.42
2018-06-22T21:20:18.349Z,58.21
2018-06-22T21:22:46.877Z,57.74
2018-06-22T21:25:15.143Z,57.54
2018-06-22T21:27:48.931Z,57.72
2018-06-22T21:30:22.735Z,57.75
2018-06-22T21:32:57.005Z,58.73
2018-06-22T21:35:31.129Z,58.32
2018-06-22T21:38:04.805Z,58.79
2018-06-22T21:40:33.318Z,58.11
2018-06-22T21:43:01.739Z,57.52
2018-06-22T21:45:30.136Z,58.42
2018-06-22T21:47:58.508Z,58.23
2018-06-22T21:50:27.076Z,58.82
2018-06-22T21:52:55.692Z,58.97
2018-06-22T21:55:24.120Z,58.52
2018-06-22T21:57:52.554Z,58.42
2018-06-22T22:00:31.366Z,58.49
2018-06-22T22:03:00.663Z,58.51
2018-06-22T22:05:29.736Z,58.22
2018-06-22T22:07:58.141Z,58.77
2018-06-22T22:10:31.879Z,58.49
2018-06-22T22:13:00.428Z,58.92
2018-06-22T22:15:29.317Z,58.42
2018-06-22T22:17:57.659Z,59.48
2018-06-22T22:20:26.014Z,60.48
2018-06-22T22:22:54.490Z,60.13
2018-06-22T22:25:22.848Z,60.27
2018-06-22T22:27:51.186Z,61.91
2018-06-22T22:30:19.501Z,61.20
2018-06-22T22:32:47.832Z,61.90
2018-06-22T22:35:16.178Z,61.92
2018-06-22T22:37:44.530Z,62.92
2018-06-22T22:40:12.854Z,61.88
2018-06-22T22:42:41.182Z,61.63
2018-06-22T22:45:10.212Z,62.74
2018-06-22T22:47:38.625Z,62.70
2018-06-22T22:50:06.933Z,62.00
2018-06-22T22:52:35.363Z,62.38
2018-06-22T22:55:03.691Z,63.63
2018-06-22T22:57:32.072Z,62.47
2018-06-22T23:00:00.457Z,61.75
2018-06-22T23:02:28.865Z,62.35
2018-06-22T23:04:57.218Z,63.63
2018-06-22T23:07:25.585Z,64.29
2018-06-22T23:09:53.968Z,63.87
2018-06-22T23:12:22.355Z,62.59
2018-06-22T23:14:50.690Z,64.80
2018-06-22T23:17:19.072Z,65.73
2018-06-22T23:19:47.393Z,64.78
2018-06-22T23:22:15.792Z,65.32
2018-06-22T23:24:44.171Z,66.00
2018-06-22T23:27:12.552Z,67.09
2018-06-22T23:29:40.953Z,66.25
2018-06-22T23:32:09.304Z,66.98
2018-06-22T23:34:37.623Z,68.28
2018-06-22T23:37:05.963Z,65.71
2018-06-22T23:39:34.313Z,68.69
2018-06-22T23:42:02.664Z,68.57
2018-06-22T23:44:31.034Z,67.86
2018-06-22T23:46:59.399Z,67.31
2018-06-22T23:49:27.797Z,68.47
2018-06-22T23:51:58.161Z,67.76
2018-06-22T23:54:26.500Z,69.41
2018-06-22T23:56:54.849Z,68.92
2018-06-22T23:59:23.198Z,69.41
